sensor_id;sensor_type;location;lat;lon;timestamp;temperature;humidity
14473;DHT22;7322;50.872;4.386;2023-04-12T00:00:19;19.70;99.90
14473;DHT22;7322;50.872;4.386;2023-04-12T00:02:46;19.70;99.90
14473;DHT22;7322;50.872;4.386;2023-04-12T00:05:19;19.70;99.90
14473;DHT22;7322;50.872;4.386;2023-04-12T00:08:06;19.70;99.90
14473;DHT22;7322;50.872;4.386;2023-04-12T00:10:48;19.70;99.90
14473;DHT22;7322;50.872;4.386;2023-04-12T00:13:16;19.70;99.90
14473;DHT22;7322;50.872;4.386;2023-04-12T00:16:17;19.70;99.90
14473;DHT22;7322;50.872;4.386;2023-04-12T00:19:03;19.70;99.90
14473;DHT22;7322;50.872;4.386;2023-04-12T00:24:54;19.70;99.90
14473;DHT22;7322;50.872;4.386;2023-04-12T00:27:32;19.70;99.90
14473;DHT22;7322;50.872;4.386;2023-04-12T00:30:07;19.70;99.90
14473;DHT22;7322;50.872;4.386;2023-04-12T00:32:48;19.70;99.90
14473;DHT22;7322;50.872;4.386;2023-04-12T00:35:15;19.70;99.90
14473;DHT22;7322;50.872;4.386;2023-04-12T00:40:57;19.70;99.90
14473;DHT22;7322;50.872;4.386;2023-04-12T00:46:49;19.70;99.90
14473;DHT22;7322;50.872;4.386;2023-04-12T00:49:22;19.70;99.90
14473;DHT22;7322;50.872;4.386;2023-04-12T00:51:54;19.60;99.90
14473;DHT22;7322;50.872;4.386;2023-04-12T00:54:30;19.70;99.90
14473;DHT22;7322;50.872;4.386;2023-04-12T01:00:09;19.70;99.90
14473;DHT22;7322;50.872;4.386;2023-04-12T01:02:50;19.60;99.90
14473;DHT22;7322;50.872;4.386;2023-04-12T01:05:22;19.60;99.90
14473;DHT22;7322;50.872;4.386;2023-04-12T01:08:04;19.60;99.90
14473;DHT22;7322;50.872;4.386;2023-04-12T01:11:11;19.60;99.90
14473;DHT22;7322;50.872;4.386;2023-04-12T01:14:01;19.60;99.90
14473;DHT22;7322;50.872;4.386;2023-04-12T01:16:33;19.60;99.90
14473;DHT22;7322;50.872;4.386;2023-04-12T01:19:28;19.60;99.90
14473;DHT22;7322;50.872;4.386;2023-04-12T01:22:24;19.60;99.90
14473;DHT22;7322;50.872;4.386;2023-04-12T01:25:10;19.60;99.90
14473;DHT22;7322;50.872;4.386;2023-04-12T01:27:51;19.60;99.90
14473;DHT22;7322;50.872;4.386;2023-04-12T01:30:45;19.60;99.90
14473;DHT22;7322;50.872;4.386;2023-04-12T01:33:23;19.60;99.90
14473;DHT22;7322;50.872;4.386;2023-04-12T01:35:58;19.60;99.90
14473;DHT22;7322;50.872;4.386;2023-04-12T01:38:27;19.60;99.90
14473;DHT22;7322;50.872;4.386;2023-04-12T01:40:56;19.60;99.90
14473;DHT22;7322;50.872;4.386;2023-04-12T01:43:24;19.60;99.90
14473;DHT22;7322;50.872;4.386;2023-04-12T01:46:05;19.60;99.90
14473;DHT22;7322;50.872;4.386;2023-04-12T01:48:34;19.60;99.90
14473;DHT22;7322;50.872;4.386;2023-04-12T01:51:33;19.60;99.90
14473;DHT22;7322;50.872;4.386;2023-04-12T01:54:10;19.60;99.90
14473;DHT22;7322;50.872;4.386;2023-04-12T01:56:53;19.60;99.90
14473;DHT22;7322;50.872;4.386;2023-04-12T01:59:39;19.60;99.90
14473;DHT22;7322;50.872;4.386;2023-04-12T02:02:20;19.60;99.90
14473;DHT22;7322;50.872;4.386;2023-04-12T02:08:04;19.60;99.90
14473;DHT22;7322;50.872;4.386;2023-04-12T02:10:53;19.60;99.90
14473;DHT22;7322;50.872;4.386;2023-04-12T02:13:39;19.60;99.90
14473;DHT22;7322;50.872;4.386;2023-04-12T02:16:18;19.60;99.90
14473;DHT22;7322;50.872;4.386;2023-04-12T02:19:03;19.60;99.90
14473;DHT22;7322;50.872;4.386;2023-04-12T02:21:47;19.60;99.90
14473;DHT22;7322;50.872;4.386;2023-04-12T02:24:50;19.60;99.90
14473;DHT22;7322;50.872;4.386;2023-04-12T02:27:27;19.60;99.90
14473;DHT22;7322;50.872;4.386;2023-04-12T02:30:01;19.50;99.90
14473;DHT22;7322;50.872;4.386;2023-04-12T02:32:46;19.60;99.90
14473;DHT22;7322;50.872;4.386;2023-04-12T02:35:23;19.60;99.90
14473;DHT22;7322;50.872;4.386;2023-04-12T02:37:56;19.60;99.90
14473;DHT22;7322;50.872;4.386;2023-04-12T02:40:37;19.60;99.90
14473;DHT22;7322;50.872;4.386;2023-04-12T02:43:06;19.60;99.90
14473;DHT22;7322;50.872;4.386;2023-04-12T02:45:35;19.50;99.90
14473;DHT22;7322;50.872;4.386;2023-04-12T02:48:07;19.50;99.90
14473;DHT22;7322;50.872;4.386;2023-04-12T02:50:36;19.60;99.90
14473;DHT22;7322;50.872;4.386;2023-04-12T02:53:23;19.60;99.90
14473;DHT22;7322;50.872;4.386;2023-04-12T02:56:07;19.60;99.90
14473;DHT22;7322;50.872;4.386;2023-04-12T02:59:00;19.60;99.90
14473;DHT22;7322;50.872;4.386;2023-04-12T03:08:08;19.50;99.90
14473;DHT22;7322;50.872;4.386;2023-04-12T03:30:11;19.50;99.90
14473;DHT22;7322;50.872;4.386;2023-04-12T03:33:15;19.40;99.90
14473;DHT22;7322;50.872;4.386;2023-04-12T03:35:42;19.50;99.90
14473;DHT22;7322;50.872;4.386;2023-04-12T03:42:03;19.50;99.90
14473;DHT22;7322;50.872;4.386;2023-04-12T03:48:28;19.50;99.90
14473;DHT22;7322;50.872;4.386;2023-04-12T03:51:02;19.50;99.90
14473;DHT22;7322;50.872;4.386;2023-04-12T03:53:38;19.50;99.90
14473;DHT22;7322;50.872;4.386;2023-04-12T03:56:06;19.50;99.90
14473;DHT22;7322;50.872;4.386;2023-04-12T03:58:40;19.50;99.90
14473;DHT22;7322;50.872;4.386;2023-04-12T04:01:22;19.50;99.90
14473;DHT22;7322;50.872;4.386;2023-04-12T04:03:54;19.50;99.90
14473;DHT22;7322;50.872;4.386;2023-04-12T04:06:21;19.50;99.90
14473;DHT22;7322;50.872;4.386;2023-04-12T04:08:53;19.50;99.90
14473;DHT22;7322;50.872;4.386;2023-04-12T04:11:22;19.50;99.90
14473;DHT22;7322;50.872;4.386;2023-04-12T04:14:10;19.50;99.90
14473;DHT22;7322;50.872;4.386;2023-04-12T04:17:01;19.50;99.90
14473;DHT22;7322;50.872;4.386;2023-04-12T04:19:59;19.50;99.90
14473;DHT22;7322;50.872;4.386;2023-04-12T04:22:26;19.50;99.90
14473;DHT22;7322;50.872;4.386;2023-04-12T04:25:00;19.50;99.90
14473;DHT22;7322;50.872;4.386;2023-04-12T04:27:36;19.50;99.90
14473;DHT22;7322;50.872;4.386;2023-04-12T04:30:11;19.50;99.90
14473;DHT22;7322;50.872;4.386;2023-04-12T04:32:43;19.50;99.90
14473;DHT22;7322;50.872;4.386;2023-04-12T04:35:39;19.50;99.90
14473;DHT22;7322;50.872;4.386;2023-04-12T04:38:07;19.50;99.90
14473;DHT22;7322;50.872;4.386;2023-04-12T04:40:37;19.50;99.90
14473;DHT22;7322;50.872;4.386;2023-04-12T04:43:11;19.50;99.90
14473;DHT22;7322;50.872;4.386;2023-04-12T04:45:53;19.50;99.90
14473;DHT22;7322;50.872;4.386;2023-04-12T04:48:36;19.50;99.90
14473;DHT22;7322;50.872;4.386;2023-04-12T04:51:12;19.50;99.90
14473;DHT22;7322;50.872;4.386;2023-04-12T04:53:51;19.50;99.90
14473;DHT22;7322;50.872;4.386;2023-04-12T04:56:28;19.40;99.90
14473;DHT22;7322;50.872;4.386;2023-04-12T04:59:12;19.50;99.90
14473;DHT22;7322;50.872;4.386;2023-04-12T05:01:57;19.60;99.90
14473;DHT22;7322;50.872;4.386;2023-04-12T05:04:29;19.70;99.90
14473;DHT22;7322;50.872;4.386;2023-04-12T05:07:22;19.80;99.90
14473;DHT22;7322;50.872;4.386;2023-04-12T05:09:58;20.00;99.90
14473;DHT22;7322;50.872;4.386;2023-04-12T05:12:32;20.10;99.90
14473;DHT22;7322;50.872;4.386;2023-04-12T05:15:00;20.20;99.90
14473;DHT22;7322;50.872;4.386;2023-04-12T05:17:32;20.30;99.90
14473;DHT22;7322;50.872;4.386;2023-04-12T05:20:18;20.50;99.90
14473;DHT22;7322;50.872;4.386;2023-04-12T05:23:01;20.60;99.90
14473;DHT22;7322;50.872;4.386;2023-04-12T05:25:34;20.60;99.90
14473;DHT22;7322;50.872;4.386;2023-04-12T05:28:11;20.70;99.90
14473;DHT22;7322;50.872;4.386;2023-04-12T05:30:44;20.80;99.90
14473;DHT22;7322;50.872;4.386;2023-04-12T05:33:20;20.90;99.90
14473;DHT22;7322;50.872;4.386;2023-04-12T05:35:59;20.90;99.90
14473;DHT22;7322;50.872;4.386;2023-04-12T05:38:51;20.90;99.90
14473;DHT22;7322;50.872;4.386;2023-04-12T05:41:18;21.00;99.90
14473;DHT22;7322;50.872;4.386;2023-04-12T05:43:46;21.00;99.90
14473;DHT22;7322;50.872;4.386;2023-04-12T05:46:26;21.00;99.90
14473;DHT22;7322;50.872;4.386;2023-04-12T05:49:07;21.00;99.90
14473;DHT22;7322;50.872;4.386;2023-04-12T05:51:51;21.00;99.90
14473;DHT22;7322;50.872;4.386;2023-04-12T05:54:26;21.00;99.90
14473;DHT22;7322;50.872;4.386;2023-04-12T05:56:58;21.10;99.90
14473;DHT22;7322;50.872;4.386;2023-04-12T05:59:25;21.00;99.90
14473;DHT22;7322;50.872;4.386;2023-04-12T06:01:54;21.00;99.90
14473;DHT22;7322;50.872;4.386;2023-04-12T06:04:26;21.10;99.90
14473;DHT22;7322;50.872;4.386;2023-04-12T06:07:01;21.10;99.90
14473;DHT22;7322;50.872;4.386;2023-04-12T06:09:48;21.10;99.90
14473;DHT22;7322;50.872;4.386;2023-04-12T06:15:11;21.10;99.90
14473;DHT22;7322;50.872;4.386;2023-04-12T06:17:38;21.10;99.90
14473;DHT22;7322;50.872;4.386;2023-04-12T06:20:13;21.10;99.90
14473;DHT22;7322;50.872;4.386;2023-04-12T06:22:46;21.10;99.90
14473;DHT22;7322;50.872;4.386;2023-04-12T06:25:24;21.10;99.90
14473;DHT22;7322;50.872;4.386;2023-04-12T06:27:52;21.10;99.90
14473;DHT22;7322;50.872;4.386;2023-04-12T06:30:19;21.00;99.90
14473;DHT22;7322;50.872;4.386;2023-04-12T06:32:49;21.00;99.90
14473;DHT22;7322;50.872;4.386;2023-04-12T06:35:21;21.10;99.90
14473;DHT22;7322;50.872;4.386;2023-04-12T06:37:52;21.00;99.90
14473;DHT22;7322;50.872;4.386;2023-04-12T06:40:37;21.00;99.90
14473;DHT22;7322;50.872;4.386;2023-04-12T06:43:06;21.00;99.90
14473;DHT22;7322;50.872;4.386;2023-04-12T06:46:05;21.00;99.90
14473;DHT22;7322;50.872;4.386;2023-04-12T06:48:35;21.00;99.90
14473;DHT22;7322;50.872;4.386;2023-04-12T06:51:06;21.00;99.90
14473;DHT22;7322;50.872;4.386;2023-04-12T06:53:34;20.90;99.90
14473;DHT22;7322;50.872;4.386;2023-04-12T06:56:05;20.90;99.90
14473;DHT22;7322;50.872;4.386;2023-04-12T06:58:40;20.90;99.90
14473;DHT22;7322;50.872;4.386;2023-04-12T07:01:08;20.90;99.90
14473;DHT22;7322;50.872;4.386;2023-04-12T07:03:44;20.90;99.90
14473;DHT22;7322;50.872;4.386;2023-04-12T07:06:28;20.90;99.90
14473;DHT22;7322;50.872;4.386;2023-04-12T07:09:03;20.80;99.90
14473;DHT22;7322;50.872;4.386;2023-04-12T07:11:42;20.80;99.90
14473;DHT22;7322;50.872;4.386;2023-04-12T07:14:10;20.80;99.90
14473;DHT22;7322;50.872;4.386;2023-04-12T07:16:37;20.70;99.90
14473;DHT22;7322;50.872;4.386;2023-04-12T07:19:30;20.70;99.90
14473;DHT22;7322;50.872;4.386;2023-04-12T07:22:03;20.70;99.90
14473;DHT22;7322;50.872;4.386;2023-04-12T07:24:37;20.70;99.90
14473;DHT22;7322;50.872;4.386;2023-04-12T07:27:17;20.70;99.90
14473;DHT22;7322;50.872;4.386;2023-04-12T07:29:52;20.70;99.90
14473;DHT22;7322;50.872;4.386;2023-04-12T07:32:19;20.70;99.90
14473;DHT22;7322;50.872;4.386;2023-04-12T07:34:58;20.60;99.90
14473;DHT22;7322;50.872;4.386;2023-04-12T07:37:36;20.70;99.90
14473;DHT22;7322;50.872;4.386;2023-04-12T07:40:15;20.70;99.90
14473;DHT22;7322;50.872;4.386;2023-04-12T07:46:12;20.70;99.90
14473;DHT22;7322;50.872;4.386;2023-04-12T07:49:06;20.70;99.90
14473;DHT22;7322;50.872;4.386;2023-04-12T07:51:37;20.70;99.90
14473;DHT22;7322;50.872;4.386;2023-04-12T07:54:26;20.70;99.90
14473;DHT22;7322;50.872;4.386;2023-04-12T07:57:09;20.60;99.90
14473;DHT22;7322;50.872;4.386;2023-04-12T07:59:46;20.60;99.90
14473;DHT22;7322;50.872;4.386;2023-04-12T08:02:14;20.60;99.90
14473;DHT22;7322;50.872;4.386;2023-04-12T08:05:07;20.60;99.90
14473;DHT22;7322;50.872;4.386;2023-04-12T08:07:58;20.60;99.90
14473;DHT22;7322;50.872;4.386;2023-04-12T08:10:43;20.70;99.90
14473;DHT22;7322;50.872;4.386;2023-04-12T08:13:26;20.60;99.90
14473;DHT22;7322;50.872;4.386;2023-04-12T08:16:11;20.60;99.90
14473;DHT22;7322;50.872;4.386;2023-04-12T08:18:46;20.60;99.90
14473;DHT22;7322;50.872;4.386;2023-04-12T08:21:14;20.60;99.90
14473;DHT22;7322;50.872;4.386;2023-04-12T08:23:48;20.60;99.90
14473;DHT22;7322;50.872;4.386;2023-04-12T08:26:33;20.60;99.90
14473;DHT22;7322;50.872;4.386;2023-04-12T08:29:02;20.60;99.90
14473;DHT22;7322;50.872;4.386;2023-04-12T08:31:32;20.60;99.90
14473;DHT22;7322;50.872;4.386;2023-04-12T08:34:27;20.60;99.90
14473;DHT22;7322;50.872;4.386;2023-04-12T08:37:14;20.60;99.90
14473;DHT22;7322;50.872;4.386;2023-04-12T08:40:04;20.70;99.90
14473;DHT22;7322;50.872;4.386;2023-04-12T08:42:38;20.70;99.90
14473;DHT22;7322;50.872;4.386;2023-04-12T08:48:00;20.60;99.90
14473;DHT22;7322;50.872;4.386;2023-04-12T08:50:38;20.60;99.90
14473;DHT22;7322;50.872;4.386;2023-04-12T08:53:24;20.70;99.90
14473;DHT22;7322;50.872;4.386;2023-04-12T08:55:53;20.70;99.90
14473;DHT22;7322;50.872;4.386;2023-04-12T08:58:29;20.60;99.90
14473;DHT22;7322;50.872;4.386;2023-04-12T09:01:09;20.60;99.90
14473;DHT22;7322;50.872;4.386;2023-04-12T09:03:44;20.70;99.90
14473;DHT22;7322;50.872;4.386;2023-04-12T09:06:22;20.70;99.90
14473;DHT22;7322;50.872;4.386;2023-04-12T09:08:51;20.70;99.90
14473;DHT22;7322;50.872;4.386;2023-04-12T09:11:28;20.70;99.90
14473;DHT22;7322;50.872;4.386;2023-04-12T09:14:19;20.80;99.90
14473;DHT22;7322;50.872;4.386;2023-04-12T09:20:29;20.90;99.90
14473;DHT22;7322;50.872;4.386;2023-04-12T09:22:58;20.90;99.90
14473;DHT22;7322;50.872;4.386;2023-04-12T09:25:42;20.90;99.90
14473;DHT22;7322;50.872;4.386;2023-04-12T09:28:23;21.00;99.90
14473;DHT22;7322;50.872;4.386;2023-04-12T09:31:02;21.00;99.90
14473;DHT22;7322;50.872;4.386;2023-04-12T09:33:33;21.00;99.90
14473;DHT22;7322;50.872;4.386;2023-04-12T09:36:10;21.00;99.90
14473;DHT22;7322;50.872;4.386;2023-04-12T09:38:57;21.00;99.90
14473;DHT22;7322;50.872;4.386;2023-04-12T09:41:33;21.10;99.90
14473;DHT22;7322;50.872;4.386;2023-04-12T09:44:02;21.00;99.90
14473;DHT22;7322;50.872;4.386;2023-04-12T09:46:29;21.00;99.90
14473;DHT22;7322;50.872;4.386;2023-04-12T09:49:04;21.00;99.90
14473;DHT22;7322;50.872;4.386;2023-04-12T09:51:33;21.00;99.90
14473;DHT22;7322;50.872;4.386;2023-04-12T09:54:08;21.00;99.90
14473;DHT22;7322;50.872;4.386;2023-04-12T09:56:44;21.00;99.90
14473;DHT22;7322;50.872;4.386;2023-04-12T09:59:27;21.00;99.90
14473;DHT22;7322;50.872;4.386;2023-04-12T10:02:14;21.00;99.90
14473;DHT22;7322;50.872;4.386;2023-04-12T10:04:55;21.00;99.90
14473;DHT22;7322;50.872;4.386;2023-04-12T10:07:28;21.00;99.90
14473;DHT22;7322;50.872;4.386;2023-04-12T10:10:17;21.00;99.90
14473;DHT22;7322;50.872;4.386;2023-04-12T10:12:47;21.10;99.90
14473;DHT22;7322;50.872;4.386;2023-04-12T10:15:25;21.10;99.90
14473;DHT22;7322;50.872;4.386;2023-04-12T10:17:54;21.10;99.90
14473;DHT22;7322;50.872;4.386;2023-04-12T10:20:32;21.10;99.90
14473;DHT22;7322;50.872;4.386;2023-04-12T10:23:05;21.20;99.90
14473;DHT22;7322;50.872;4.386;2023-04-12T10:25:37;21.10;99.90
14473;DHT22;7322;50.872;4.386;2023-04-12T10:28:36;21.10;99.90
14473;DHT22;7322;50.872;4.386;2023-04-12T10:31:36;21.10;99.90
14473;DHT22;7322;50.872;4.386;2023-04-12T10:34:05;21.10;99.90
14473;DHT22;7322;50.872;4.386;2023-04-12T10:36:52;21.10;99.90
14473;DHT22;7322;50.872;4.386;2023-04-12T10:39:38;21.10;99.90
14473;DHT22;7322;50.872;4.386;2023-04-12T10:42:21;21.10;99.90
14473;DHT22;7322;50.872;4.386;2023-04-12T10:44:49;21.10;99.90
14473;DHT22;7322;50.872;4.386;2023-04-12T10:50:24;21.10;99.90
14473;DHT22;7322;50.872;4.386;2023-04-12T10:53:23;21.10;99.90
14473;DHT22;7322;50.872;4.386;2023-04-12T10:55:53;21.10;99.90
14473;DHT22;7322;50.872;4.386;2023-04-12T11:01:27;21.00;99.90
14473;DHT22;7322;50.872;4.386;2023-04-12T11:04:10;21.00;99.90
14473;DHT22;7322;50.872;4.386;2023-04-12T11:06:54;21.00;99.90
14473;DHT22;7322;50.872;4.386;2023-04-12T11:09:39;21.00;99.90
14473;DHT22;7322;50.872;4.386;2023-04-12T11:12:13;21.00;99.90
14473;DHT22;7322;50.872;4.386;2023-04-12T11:14:48;20.90;99.90
14473;DHT22;7322;50.872;4.386;2023-04-12T11:17:37;21.00;99.90
14473;DHT22;7322;50.872;4.386;2023-04-12T11:20:10;21.00;99.90
14473;DHT22;7322;50.872;4.386;2023-04-12T11:22:42;21.00;99.90
14473;DHT22;7322;50.872;4.386;2023-04-12T11:25:16;21.00;99.90
14473;DHT22;7322;50.872;4.386;2023-04-12T11:27:49;21.00;99.90
14473;DHT22;7322;50.872;4.386;2023-04-12T11:30:20;21.00;99.90
14473;DHT22;7322;50.872;4.386;2023-04-12T11:32:52;21.00;99.90
14473;DHT22;7322;50.872;4.386;2023-04-12T11:35:30;21.00;99.90
14473;DHT22;7322;50.872;4.386;2023-04-12T11:38:01;21.10;99.90
14473;DHT22;7322;50.872;4.386;2023-04-12T11:40:36;21.00;99.90
14473;DHT22;7322;50.872;4.386;2023-04-12T11:43:03;20.90;99.90
14473;DHT22;7322;50.872;4.386;2023-04-12T11:45:30;20.90;99.90
14473;DHT22;7322;50.872;4.386;2023-04-12T11:48:10;20.90;99.90
14473;DHT22;7322;50.872;4.386;2023-04-12T11:50:39;20.90;99.90
14473;DHT22;7322;50.872;4.386;2023-04-12T11:53:12;20.90;99.90
14473;DHT22;7322;50.872;4.386;2023-04-12T11:55:53;20.80;99.90
14473;DHT22;7322;50.872;4.386;2023-04-12T11:58:24;20.80;99.90
14473;DHT22;7322;50.872;4.386;2023-04-12T12:01:03;20.80;99.90
14473;DHT22;7322;50.872;4.386;2023-04-12T12:03:38;20.80;99.90
14473;DHT22;7322;50.872;4.386;2023-04-12T12:06:13;20.80;99.90
14473;DHT22;7322;50.872;4.386;2023-04-12T12:08:53;20.80;99.90
14473;DHT22;7322;50.872;4.386;2023-04-12T12:11:34;20.90;99.90
14473;DHT22;7322;50.872;4.386;2023-04-12T12:14:10;20.90;99.90
14473;DHT22;7322;50.872;4.386;2023-04-12T12:16:57;20.90;99.90
14473;DHT22;7322;50.872;4.386;2023-04-12T12:19:29;21.00;99.90
14473;DHT22;7322;50.872;4.386;2023-04-12T12:22:13;21.00;99.90
14473;DHT22;7322;50.872;4.386;2023-04-12T12:24:50;21.00;99.90
14473;DHT22;7322;50.872;4.386;2023-04-12T12:27:29;21.00;99.90
14473;DHT22;7322;50.872;4.386;2023-04-12T12:30:00;21.10;99.90
14473;DHT22;7322;50.872;4.386;2023-04-12T12:32:31;21.00;99.90
14473;DHT22;7322;50.872;4.386;2023-04-12T12:35:06;21.00;99.90
14473;DHT22;7322;50.872;4.386;2023-04-12T12:37:34;21.10;99.90
14473;DHT22;7322;50.872;4.386;2023-04-12T12:40:11;21.10;99.90
14473;DHT22;7322;50.872;4.386;2023-04-12T12:42:45;21.10;99.90
14473;DHT22;7322;50.872;4.386;2023-04-12T12:45:13;21.10;99.90
14473;DHT22;7322;50.872;4.386;2023-04-12T12:47:49;21.10;99.90
14473;DHT22;7322;50.872;4.386;2023-04-12T12:50:18;21.10;99.90
14473;DHT22;7322;50.872;4.386;2023-04-12T12:52:47;21.10;99.90
14473;DHT22;7322;50.872;4.386;2023-04-12T12:55:15;21.10;99.90
14473;DHT22;7322;50.872;4.386;2023-04-12T12:58:04;21.10;99.90
14473;DHT22;7322;50.872;4.386;2023-04-12T13:00:35;21.20;99.90
14473;DHT22;7322;50.872;4.386;2023-04-12T13:03:03;21.10;99.90
14473;DHT22;7322;50.872;4.386;2023-04-12T13:05:43;21.10;99.90
14473;DHT22;7322;50.872;4.386;2023-04-12T13:08:18;21.20;99.90
14473;DHT22;7322;50.872;4.386;2023-04-12T13:10:51;21.20;99.90
14473;DHT22;7322;50.872;4.386;2023-04-12T13:13:20;21.20;99.90
14473;DHT22;7322;50.872;4.386;2023-04-12T13:15:59;21.20;99.90
14473;DHT22;7322;50.872;4.386;2023-04-12T13:18:26;21.20;99.90
14473;DHT22;7322;50.872;4.386;2023-04-12T13:20:56;21.20;99.90
14473;DHT22;7322;50.872;4.386;2023-04-12T13:23:24;21.20;99.90
14473;DHT22;7322;50.872;4.386;2023-04-12T13:25:52;21.20;99.90
14473;DHT22;7322;50.872;4.386;2023-04-12T13:28:41;21.20;99.90
14473;DHT22;7322;50.872;4.386;2023-04-12T13:31:08;21.30;99.90
14473;DHT22;7322;50.872;4.386;2023-04-12T13:34:06;21.20;99.90
14473;DHT22;7322;50.872;4.386;2023-04-12T13:36:44;21.20;99.90
14473;DHT22;7322;50.872;4.386;2023-04-12T13:39:23;21.20;99.90
14473;DHT22;7322;50.872;4.386;2023-04-12T13:41:56;21.20;99.90
14473;DHT22;7322;50.872;4.386;2023-04-12T13:44:23;21.20;99.90
14473;DHT22;7322;50.872;4.386;2023-04-12T13:46:53;21.10;99.90
14473;DHT22;7322;50.872;4.386;2023-04-12T13:49:25;21.10;99.90
14473;DHT22;7322;50.872;4.386;2023-04-12T13:51:54;21.10;99.90
14473;DHT22;7322;50.872;4.386;2023-04-12T13:54:34;21.10;99.90
14473;DHT22;7322;50.872;4.386;2023-04-12T13:57:02;21.10;99.90
14473;DHT22;7322;50.872;4.386;2023-04-12T13:59:31;21.10;99.90
14473;DHT22;7322;50.872;4.386;2023-04-12T14:01:59;21.10;99.90
14473;DHT22;7322;50.872;4.386;2023-04-12T14:04:27;21.00;99.90
14473;DHT22;7322;50.872;4.386;2023-04-12T14:06:58;21.00;99.90
14473;DHT22;7322;50.872;4.386;2023-04-12T14:09:30;21.10;99.90
14473;DHT22;7322;50.872;4.386;2023-04-12T14:12:07;21.10;99.90
14473;DHT22;7322;50.872;4.386;2023-04-12T14:14:36;21.20;99.90
14473;DHT22;7322;50.872;4.386;2023-04-12T14:17:04;21.20;99.90
14473;DHT22;7322;50.872;4.386;2023-04-12T14:19:32;21.20;99.90
14473;DHT22;7322;50.872;4.386;2023-04-12T14:22:07;21.30;99.90
14473;DHT22;7322;50.872;4.386;2023-04-12T14:24:42;21.30;99.90
14473;DHT22;7322;50.872;4.386;2023-04-12T14:27:09;21.30;99.90
14473;DHT22;7322;50.872;4.386;2023-04-12T14:29:39;21.30;99.90
14473;DHT22;7322;50.872;4.386;2023-04-12T14:32:06;21.30;99.90
14473;DHT22;7322;50.872;4.386;2023-04-12T14:34:39;21.30;99.90
14473;DHT22;7322;50.872;4.386;2023-04-12T14:37:11;21.30;99.90
14473;DHT22;7322;50.872;4.386;2023-04-12T14:39:52;21.30;99.90
14473;DHT22;7322;50.872;4.386;2023-04-12T14:42:29;21.40;99.90
14473;DHT22;7322;50.872;4.386;2023-04-12T14:44:56;21.30;99.90
14473;DHT22;7322;50.872;4.386;2023-04-12T14:47:23;21.30;99.90
14473;DHT22;7322;50.872;4.386;2023-04-12T14:49:53;21.40;99.90
14473;DHT22;7322;50.872;4.386;2023-04-12T14:52:26;21.40;99.90
14473;DHT22;7322;50.872;4.386;2023-04-12T14:55:10;21.40;99.90
14473;DHT22;7322;50.872;4.386;2023-04-12T14:57:38;21.40;99.90
14473;DHT22;7322;50.872;4.386;2023-04-12T15:00:07;21.40;99.90
14473;DHT22;7322;50.872;4.386;2023-04-12T15:02:49;21.40;99.90
14473;DHT22;7322;50.872;4.386;2023-04-12T15:05:16;21.50;99.90
14473;DHT22;7322;50.872;4.386;2023-04-12T15:07:56;21.50;99.90
14473;DHT22;7322;50.872;4.386;2023-04-12T15:10:24;21.50;99.90
14473;DHT22;7322;50.872;4.386;2023-04-12T15:12:59;21.50;99.90
14473;DHT22;7322;50.872;4.386;2023-04-12T15:15:26;21.50;99.90
14473;DHT22;7322;50.872;4.386;2023-04-12T15:17:53;21.50;99.90
14473;DHT22;7322;50.872;4.386;2023-04-12T15:20:20;21.50;99.90
14473;DHT22;7322;50.872;4.386;2023-04-12T15:22:49;21.50;99.90
14473;DHT22;7322;50.872;4.386;2023-04-12T15:25:20;21.50;99.90
14473;DHT22;7322;50.872;4.386;2023-04-12T15:27:48;21.50;99.90
14473;DHT22;7322;50.872;4.386;2023-04-12T15:30:16;21.60;99.90
14473;DHT22;7322;50.872;4.386;2023-04-12T15:32:43;21.50;99.90
14473;DHT22;7322;50.872;4.386;2023-04-12T15:35:19;21.40;99.90
14473;DHT22;7322;50.872;4.386;2023-04-12T15:37:48;21.40;99.90
14473;DHT22;7322;50.872;4.386;2023-04-12T15:40:17;21.30;99.90
14473;DHT22;7322;50.872;4.386;2023-04-12T15:42:49;21.20;99.90
14473;DHT22;7322;50.872;4.386;2023-04-12T15:45:18;21.20;99.90
14473;DHT22;7322;50.872;4.386;2023-04-12T15:47:47;21.20;99.90
14473;DHT22;7322;50.872;4.386;2023-04-12T15:50:16;21.20;99.90
14473;DHT22;7322;50.872;4.386;2023-04-12T15:52:43;21.10;99.90
14473;DHT22;7322;50.872;4.386;2023-04-12T15:55:13;21.10;99.90
14473;DHT22;7322;50.872;4.386;2023-04-12T15:57:41;21.10;99.90
14473;DHT22;7322;50.872;4.386;2023-04-12T16:00:12;21.00;99.90
14473;DHT22;7322;50.872;4.386;2023-04-12T16:02:45;20.90;99.90
14473;DHT22;7322;50.872;4.386;2023-04-12T16:05:14;20.90;99.90
14473;DHT22;7322;50.872;4.386;2023-04-12T16:07:43;20.80;99.90
14473;DHT22;7322;50.872;4.386;2023-04-12T16:10:11;20.90;99.90
14473;DHT22;7322;50.872;4.386;2023-04-12T16:12:42;20.90;99.90
14473;DHT22;7322;50.872;4.386;2023-04-12T16:15:18;20.90;99.90
14473;DHT22;7322;50.872;4.386;2023-04-12T16:17:45;20.90;99.90
14473;DHT22;7322;50.872;4.386;2023-04-12T16:20:14;20.80;99.90
14473;DHT22;7322;50.872;4.386;2023-04-12T16:22:43;20.80;99.90
14473;DHT22;7322;50.872;4.386;2023-04-12T16:25:12;20.80;99.90
14473;DHT22;7322;50.872;4.386;2023-04-12T16:27:41;20.80;99.90
14473;DHT22;7322;50.872;4.386;2023-04-12T16:30:08;20.80;99.90
14473;DHT22;7322;50.872;4.386;2023-04-12T16:32:45;20.80;99.90
14473;DHT22;7322;50.872;4.386;2023-04-12T16:35:14;20.80;99.90
14473;DHT22;7322;50.872;4.386;2023-04-12T16:37:42;20.80;99.90
14473;DHT22;7322;50.872;4.386;2023-04-12T16:40:09;20.70;99.90
14473;DHT22;7322;50.872;4.386;2023-04-12T16:42:38;20.70;99.90
14473;DHT22;7322;50.872;4.386;2023-04-12T16:45:06;20.70;99.90
14473;DHT22;7322;50.872;4.386;2023-04-12T16:47:34;20.60;99.90
14473;DHT22;7322;50.872;4.386;2023-04-12T16:50:03;20.50;99.90
14473;DHT22;7322;50.872;4.386;2023-04-12T16:52:35;20.60;99.90
14473;DHT22;7322;50.872;4.386;2023-04-12T16:55:04;20.50;99.90
14473;DHT22;7322;50.872;4.386;2023-04-12T16:57:31;20.50;99.90
14473;DHT22;7322;50.872;4.386;2023-04-12T16:59:59;20.60;99.90
14473;DHT22;7322;50.872;4.386;2023-04-12T17:02:27;20.60;99.90
14473;DHT22;7322;50.872;4.386;2023-04-12T17:04:54;20.60;99.90
14473;DHT22;7322;50.872;4.386;2023-04-12T17:07:23;20.60;99.90
14473;DHT22;7322;50.872;4.386;2023-04-12T17:09:56;20.70;99.90
14473;DHT22;7322;50.872;4.386;2023-04-12T17:12:25;20.60;99.90
14473;DHT22;7322;50.872;4.386;2023-04-12T17:14:54;20.70;99.90
14473;DHT22;7322;50.872;4.386;2023-04-12T17:17:40;20.70;99.90
14473;DHT22;7322;50.872;4.386;2023-04-12T17:20:09;20.80;99.90
14473;DHT22;7322;50.872;4.386;2023-04-12T17:22:39;20.80;99.90
14473;DHT22;7322;50.872;4.386;2023-04-12T17:25:07;20.80;99.90
14473;DHT22;7322;50.872;4.386;2023-04-12T17:27:35;20.80;99.90
14473;DHT22;7322;50.872;4.386;2023-04-12T17:30:06;20.80;99.90
14473;DHT22;7322;50.872;4.386;2023-04-12T17:32:34;20.80;99.90
14473;DHT22;7322;50.872;4.386;2023-04-12T17:35:01;20.80;99.90
14473;DHT22;7322;50.872;4.386;2023-04-12T17:37:30;20.80;99.90
14473;DHT22;7322;50.872;4.386;2023-04-12T17:40:01;20.80;99.90
14473;DHT22;7322;50.872;4.386;2023-04-12T17:42:30;20.90;99.90
14473;DHT22;7322;50.872;4.386;2023-04-12T17:45:00;20.90;99.90